Time;durP1;ratioP1;P1;durP2;ratioP2;P2;SDS_P1;SDS_P2;PMS_P1;PMS_P2;Temp;Humidity;BMP_temperature;BMP_pressure;BME280_temperature;BME280_humidity;BME280_pressure;Samples;Min_cycle;Max_cycle;Signal;HPM_P1;HPM_P2
2023/10/11 00:00:33;;;;;;;14.50;13.20;;;14.70;99.90;;;;;;6400605;23;20008;-89
2023/10/11 00:03:05;;;;;;;12.82;11.13;;;14.80;99.90;;;;;;6400122;23;20630;-86
2023/10/11 00:05:37;;;;;;;15.63;14.23;;;14.70;99.90;;;;;;6373750;23;20040;-83
2023/10/11 00:08:09;;;;;;;13.85;12.70;;;14.80;99.90;;;;;;6399189;23;20019;-86
2023/10/11 00:11:00;;;;;;;17.13;15.60;;;14.60;99.90;;;;;;6400896;23;20071;-83
2023/10/11 00:13:35;;;;;;;15.02;13.82;;;14.60;99.90;;;;;;6400056;23;20005;-82
2023/10/11 00:16:08;;;;;;;15.45;14.07;;;14.60;99.90;;;;;;6374354;23;20040;-92
2023/10/11 00:18:41;;;;;;;15.65;12.45;;;14.60;99.90;;;;;;6400713;23;20403;-91
2023/10/11 00:21:15;;;;;;;13.35;12.18;;;14.70;99.90;;;;;;6400685;23;20008;-88
2023/10/11 00:23:51;;;;;;;12.43;11.45;;;14.50;99.90;;;;;;6374432;23;20380;-92
2023/10/11 00:26:22;;;;;;;14.98;13.70;;;14.60;99.90;;;;;;6400373;23;20362;-93
2023/10/11 00:28:53;;;;;;;14.00;12.85;;;14.70;99.90;;;;;;6400440;23;20012;-91
2023/10/11 00:31:24;;;;;;;14.95;13.77;;;14.60;99.90;;;;;;6374204;23;20036;-91
2023/10/11 00:33:55;;;;;;;13.90;12.45;;;14.60;99.90;;;;;;6400398;23;20059;-90
2023/10/11 00:36:31;;;;;;;13.30;12.27;;;14.60;99.90;;;;;;6399782;23;20015;-82
2023/10/11 00:39:05;;;;;;;14.05;12.20;;;14.50;99.90;;;;;;6400417;23;20004;-91
2023/10/11 00:41:39;;;;;;;12.48;11.27;;;14.40;99.90;;;;;;6373868;23;20005;-85
2023/10/11 00:44:10;;;;;;;12.07;11.07;;;14.60;99.90;;;;;;6399993;23;20125;-90
2023/10/11 00:46:57;;;;;;;9.80;8.98;;;14.50;99.90;;;;;;6398117;23;20013;-89
2023/10/11 00:49:39;;;;;;;10.18;9.38;;;14.30;99.90;;;;;;6400126;23;20374;-91
2023/10/11 00:52:13;;;;;;;9.93;8.98;;;14.40;99.90;;;;;;6373901;23;20078;-90
2023/10/11 00:54:46;;;;;;;9.65;8.77;;;14.20;99.90;;;;;;6399961;23;20063;-90
2023/10/11 00:57:18;;;;;;;10.43;9.38;;;14.30;99.90;;;;;;6373599;23;20009;-91
2023/10/11 00:59:49;;;;;;;10.38;9.38;;;14.30;99.90;;;;;;6400065;23;20012;-89
2023/10/11 01:02:21;;;;;;;12.50;9.40;;;14.20;99.90;;;;;;6399986;23;20059;-90
2023/10/11 01:04:51;;;;;;;10.32;8.90;;;14.40;99.90;;;;;;6399959;23;20024;-82
2023/10/11 01:07:22;;;;;;;11.05;9.95;;;14.20;99.90;;;;;;6373205;23;20024;-90
2023/10/11 01:09:53;;;;;;;11.05;9.05;;;14.30;99.90;;;;;;6399994;23;19998;-88
2023/10/11 01:12:24;;;;;;;10.88;9.93;;;14.20;99.90;;;;;;6399954;23;20078;-91
2023/10/11 01:14:58;;;;;;;9.40;8.70;;;14.10;99.90;;;;;;6373383;23;20016;-85
2023/10/11 01:17:32;;;;;;;9.32;8.52;;;14.00;99.90;;;;;;6399981;23;20001;-86
2023/10/11 01:20:06;;;;;;;10.77;9.95;;;14.10;99.90;;;;;;6399898;23;20570;-86
2023/10/11 01:22:37;;;;;;;9.32;8.63;;;14.00;99.90;;;;;;6399795;23;20083;-89
2023/10/11 01:25:12;;;;;;;10.30;9.27;;;13.80;99.90;;;;;;6399432;23;20024;-89
2023/10/11 01:27:44;;;;;;;11.02;10.02;;;14.00;99.90;;;;;;6373575;23;20457;-87
2023/10/11 01:30:15;;;;;;;10.70;9.65;;;14.00;99.90;;;;;;6399651;23;20004;-91
2023/10/11 01:32:48;;;;;;;10.35;9.35;;;13.90;99.90;;;;;;6373856;23;20096;-87
2023/10/11 01:35:19;;;;;;;11.43;10.50;;;14.00;99.90;;;;;;6399940;23;20031;-82
2023/10/11 01:37:55;;;;;;;9.30;8.60;;;13.90;99.90;;;;;;6399687;23;20005;-91
2023/10/11 01:40:26;;;;;;;9.93;8.73;;;14.10;99.90;;;;;;6373368;23;20045;-91
2023/10/11 01:42:58;;;;;;;11.40;10.55;;;14.20;99.90;;;;;;6373223;23;20013;-90
2023/10/11 01:45:29;;;;;;;20.67;19.17;;;14.40;99.90;;;;;;6399442;23;20080;-89
2023/10/11 01:48:00;;;;;;;22.55;20.88;;;14.40;99.90;;;;;;6399495;23;20020;-93
2023/10/11 01:50:32;;;;;;;18.35;16.83;;;14.70;99.90;;;;;;6399564;23;20012;-92
2023/10/11 01:53:03;;;;;;;17.38;15.95;;;14.70;99.90;;;;;;6399478;23;20051;-91
2023/10/11 01:55:36;;;;;;;19.55;18.38;;;14.70;99.90;;;;;;6399527;23;20005;-89
2023/10/11 01:58:12;;;;;;;19.20;17.50;;;14.80;99.90;;;;;;6372886;23;20001;-91
2023/10/11 02:00:43;;;;;;;17.13;15.73;;;14.80;99.90;;;;;;6399795;23;20097;-87
2023/10/11 02:03:15;;;;;;;11.00;10.18;;;14.90;99.90;;;;;;6375411;23;20071;-90
2023/10/11 02:05:45;;;;;;;8.02;7.43;;;15.00;99.90;;;;;;6399537;23;20008;-91
2023/10/11 02:08:17;;;;;;;6.72;6.15;;;15.10;99.90;;;;;;6399373;23;20009;-91
2023/10/11 02:10:48;;;;;;;9.45;7.10;;;15.00;99.90;;;;;;6397716;23;20048;-90
2023/10/11 02:13:20;;;;;;;7.22;6.25;;;14.90;99.90;;;;;;6397936;23;20013;-91
2023/10/11 02:15:51;;;;;;;9.20;6.22;;;14.80;99.90;;;;;;6399387;23;20076;-91
2023/10/11 02:18:22;;;;;;;8.00;5.78;;;14.90;99.90;;;;;;6398026;23;20021;-90
2023/10/11 02:20:55;;;;;;;5.45;4.90;;;14.90;99.90;;;;;;6397770;23;20084;-86
2023/10/11 02:23:26;;;;;;;7.53;6.22;;;14.90;99.90;;;;;;6398040;23;20005;-92
2023/10/11 02:25:57;;;;;;;7.38;6.47;;;14.80;99.90;;;;;;6399475;23;20037;-88
2023/10/11 02:28:27;;;;;;;8.70;5.93;;;14.90;99.90;;;;;;6399944;23;20048;-91
2023/10/11 02:30:58;;;;;;;8.73;6.95;;;14.70;99.90;;;;;;6398337;23;20058;-84
2023/10/11 02:33:32;;;;;;;9.38;8.40;;;14.70;99.90;;;;;;6397751;23;20012;-86
2023/10/11 02:36:17;;;;;;;11.30;9.90;;;14.70;99.90;;;;;;6400873;23;20009;-88
2023/10/11 02:38:49;;;;;;;12.13;11.02;;;14.70;99.90;;;;;;6399695;23;20028;-87
2023/10/11 02:41:24;;;;;;;13.55;12.35;;;14.70;99.90;;;;;;6401226;23;20009;-92
2023/10/11 02:43:57;;;;;;;13.40;12.25;;;14.60;99.90;;;;;;6401159;23;20009;-90
2023/10/11 02:46:32;;;;;;;16.23;14.82;;;14.50;99.90;;;;;;6401259;23;20001;-92
2023/10/11 02:49:18;;;;;;;17.65;16.13;;;14.60;99.90;;;;;;6401275;23;20019;-88
2023/10/11 02:51:54;;;;;;;17.88;16.27;;;14.60;99.90;;;;;;6399686;23;20001;-89
2023/10/11 02:54:38;;;;;;;18.02;16.83;;;14.50;99.90;;;;;;6401486;23;20001;-87
2023/10/11 02:57:09;;;;;;;18.75;17.38;;;14.50;99.90;;;;;;6401322;23;20075;-91
2023/10/11 02:59:44;;;;;;;16.98;15.65;;;14.60;99.90;;;;;;6400077;23;20087;-82
2023/10/11 03:02:15;;;;;;;16.25;15.00;;;14.40;99.90;;;;;;6399379;23;20009;-92
2023/10/11 03:04:46;;;;;;;15.68;14.45;;;14.30;99.90;;;;;;6399622;23;20437;-90
2023/10/11 03:07:26;;;;;;;16.15;14.85;;;14.20;99.90;;;;;;6399538;23;20020;-83
2023/10/11 03:09:57;;;;;;;17.95;16.50;;;14.20;99.90;;;;;;6401388;23;20024;-90
2023/10/11 03:12:30;;;;;;;16.17;15.07;;;14.10;99.90;;;;;;6399504;23;20009;-90
2023/10/11 03:15:08;;;;;;;14.73;12.90;;;14.10;99.90;;;;;;6399526;23;20016;-90
2023/10/11 03:17:42;;;;;;;22.55;12.20;;;14.10;99.90;;;;;;6401611;23;20008;-90
2023/10/11 03:21:07;;;;;;;12.48;11.43;;;14.10;99.90;;;;;;6400936;23;20009;-88
2023/10/11 03:23:13;;;;;;;11.90;11.10;;;14.20;99.90;;;;;;6395418;23;20326;-83
2023/10/11 03:25:49;;;;;;;15.93;12.50;;;14.10;99.90;;;;;;6399974;23;20016;-92
2023/10/11 03:28:26;;;;;;;12.55;11.65;;;13.90;99.90;;;;;;6402720;23;20008;-92
2023/10/11 03:30:57;;;;;;;13.73;12.65;;;13.90;99.90;;;;;;6406085;23;20437;-87
2023/10/11 03:33:29;;;;;;;11.65;10.65;;;13.80;99.90;;;;;;6403780;23;20015;-86
2023/10/11 03:44:11;;;;;;;;;;;13.80;99.90;;;;;;5614757;23;19923;-81
2023/10/11 03:46:47;;;;;;;11.35;10.25;;;13.80;99.90;;;;;;6431358;23;19916;-81
2023/10/11 03:51:48;;;;;;;10.48;9.73;;;13.80;99.90;;;;;;6431753;23;20005;-80
2023/10/11 03:54:22;;;;;;;9.55;8.60;;;13.80;99.90;;;;;;6431565;23;20433;-80
2023/10/11 03:56:55;;;;;;;8.90;8.02;;;13.90;99.90;;;;;;6431600;23;20001;-81
2023/10/11 03:59:26;;;;;;;9.35;8.55;;;13.60;99.90;;;;;;6431506;23;20023;-80
2023/10/11 04:02:00;;;;;;;7.22;6.55;;;13.60;99.90;;;;;;6431410;23;20090;-80
2023/10/11 04:04:31;;;;;;;7.03;6.32;;;13.60;99.90;;;;;;6431382;23;20003;-81
2023/10/11 04:07:04;;;;;;;6.75;6.15;;;13.40;99.90;;;;;;6431193;23;20013;-81
2023/10/11 04:09:37;;;;;;;7.65;7.05;;;13.50;99.90;;;;;;6431341;23;20367;-80
2023/10/11 04:12:10;;;;;;;9.27;8.25;;;13.50;99.90;;;;;;6430915;23;20015;-80
2023/10/11 04:14:45;;;;;;;8.38;7.78;;;13.70;99.90;;;;;;6404825;23;20015;-81
2023/10/11 04:22:51;;;;;;;12.38;11.38;;;13.50;99.90;;;;;;6431204;23;20100;-80
2023/10/11 04:25:22;;;;;;;13.98;13.07;;;13.60;99.90;;;;;;6431258;23;20324;-80
2023/10/11 04:27:57;;;;;;;12.13;11.13;;;13.50;99.90;;;;;;6430833;23;20063;-80
2023/10/11 04:30:41;;;;;;;13.77;12.70;;;13.50;99.90;;;;;;6404187;23;20001;-80
2023/10/11 04:33:20;;;;;;;16.73;15.43;;;13.50;99.90;;;;;;6430964;23;20004;-80
2023/10/11 04:36:02;;;;;;;19.23;17.92;;;13.40;99.90;;;;;;6430957;23;20001;-80
2023/10/11 04:38:34;;;;;;;19.88;18.40;;;13.40;99.90;;;;;;6430882;23;20352;-80
2023/10/11 04:41:14;;;;;;;19.58;18.42;;;13.50;99.90;;;;;;6404251;23;20006;-80
2023/10/11 04:44:04;;;;;;;20.45;19.15;;;13.40;99.90;;;;;;6430342;23;20021;-80
2023/10/11 04:46:36;;;;;;;19.33;18.10;;;13.40;99.90;;;;;;6430808;23;20452;-80
2023/10/11 04:49:19;;;;;;;19.92;18.60;;;13.60;99.90;;;;;;6430853;23;20058;-80
2023/10/11 04:51:51;;;;;;;18.30;17.13;;;13.60;99.90;;;;;;6430904;23;20008;-80
2023/10/11 04:55:09;;;;;;;18.63;17.25;;;13.60;99.90;;;;;;6430897;23;20075;-80
2023/10/11 04:58:04;;;;;;;15.02;13.75;;;13.50;99.90;;;;;;6424673;23;20000;-81
2023/10/11 05:00:18;;;;;;;13.32;12.27;;;13.60;99.90;;;;;;6427090;23;20004;-81
2023/10/11 05:02:58;;;;;;;11.43;10.52;;;13.70;99.90;;;;;;6430683;23;20332;-81
2023/10/11 05:05:29;;;;;;;11.93;11.00;;;13.70;99.90;;;;;;6430933;23;20001;-81
2023/10/11 05:08:14;;;;;;;10.15;9.25;;;13.50;99.90;;;;;;6430786;23;20360;-80
2023/10/11 05:10:46;;;;;;;10.57;9.60;;;13.70;99.90;;;;;;6430805;23;20005;-80
2023/10/11 05:13:20;;;;;;;12.75;10.35;;;13.90;99.90;;;;;;6430538;23;20388;-80
2023/10/11 05:15:52;;;;;;;10.88;10.00;;;13.80;99.90;;;;;;6403979;23;20373;-80
2023/10/11 05:18:24;;;;;;;12.77;11.55;;;13.90;99.90;;;;;;6430437;23;20048;-80
2023/10/11 05:20:59;;;;;;;13.70;12.60;;;14.20;99.90;;;;;;6430666;23;20424;-80
2023/10/11 05:24:03;;;;;;;13.38;12.20;;;14.10;99.90;;;;;;6430069;23;20008;-80
2023/10/11 05:26:47;;;;;;;12.82;11.70;;;14.40;99.90;;;;;;6429795;23;20008;-80
2023/10/11 05:29:24;;;;;;;13.27;12.25;;;14.90;99.90;;;;;;6430252;23;20028;-81
2023/10/11 05:34:51;;;;;;;12.88;11.80;;;15.40;99.90;;;;;;6430517;23;20083;-80
2023/10/11 05:51:28;;;;;;;8.20;5.05;;;16.90;99.90;;;;;;6493585;22;20046;-86
2023/10/11 05:54:03;;;;;;;9.88;7.80;;;17.10;99.90;;;;;;6493479;22;20296;-86
2023/10/11 05:56:38;;;;;;;7.90;6.82;;;17.20;99.90;;;;;;6466300;22;20035;-82
2023/10/11 05:59:09;;;;;;;9.60;8.38;;;17.40;99.90;;;;;;6493230;22;20004;-80
2023/10/11 06:01:52;;;;;;;10.68;8.73;;;17.50;99.90;;;;;;6466286;22;20007;-81
2023/10/11 06:04:23;;;;;;;7.45;6.47;;;17.60;99.90;;;;;;6466142;22;20312;-79
2023/10/11 06:06:57;;;;;;;8.65;5.88;;;17.40;99.90;;;;;;6493023;22;20041;-80
2023/10/11 06:09:30;;;;;;;6.45;5.85;;;17.20;99.90;;;;;;6465785;22;20028;-80
2023/10/11 06:12:01;;;;;;;6.78;6.18;;;17.10;99.90;;;;;;6488566;22;20090;-80
2023/10/11 06:14:32;;;;;;;6.90;5.88;;;17.00;99.90;;;;;;6459930;23;20087;-80
2023/10/11 06:17:05;;;;;;;9.50;6.90;;;17.00;99.90;;;;;;6459973;23;20008;-80
2023/10/11 06:19:40;;;;;;;10.57;6.30;;;17.10;99.90;;;;;;6461382;23;20412;-80
2023/10/11 06:22:14;;;;;;;9.32;6.70;;;16.90;99.90;;;;;;6459833;23;20048;-80
2023/10/11 06:24:44;;;;;;;6.68;5.97;;;17.00;99.90;;;;;;6461165;23;20024;-80
2023/10/11 06:30:09;;;;;;;10.25;5.90;;;17.20;99.90;;;;;;6461413;23;20103;-81
2023/10/11 06:32:42;;;;;;;8.98;5.43;;;17.30;99.90;;;;;;6434499;23;20012;-79
2023/10/11 06:35:23;;;;;;;5.85;5.25;;;17.20;99.90;;;;;;6461004;23;20000;-81
2023/10/11 06:37:54;;;;;;;7.60;5.72;;;17.30;99.90;;;;;;6461409;23;20071;-81
2023/10/11 06:40:47;;;;;;;7.75;5.72;;;17.40;99.90;;;;;;6461493;23;20431;-79
2023/10/11 06:43:17;;;;;;;8.18;5.63;;;17.40;99.90;;;;;;6460970;22;20023;-81
2023/10/11 06:45:49;;;;;;;7.25;6.40;;;17.60;99.90;;;;;;6434589;23;20035;-80
2023/10/11 06:48:22;;;;;;;12.35;8.48;;;17.60;99.90;;;;;;6461297;23;20003;-80
2023/10/11 06:50:53;;;;;;;8.63;7.78;;;17.50;99.90;;;;;;6459748;23;20000;-80
2023/10/11 06:53:24;;;;;;;8.93;8.23;;;17.60;99.90;;;;;;6461381;23;20004;-80
2023/10/11 06:55:58;;;;;;;8.57;7.88;;;17.60;99.90;;;;;;6461412;23;20294;-80
2023/10/11 06:58:43;;;;;;;9.80;9.00;;;17.60;99.90;;;;;;6461384;23;20004;-80
2023/10/11 07:01:14;;;;;;;9.95;8.95;;;17.60;99.90;;;;;;6461619;23;20083;-80
2023/10/11 07:03:45;;;;;;;10.23;9.30;;;17.50;99.90;;;;;;6461442;23;20036;-80
2023/10/11 07:06:22;;;;;;;12.13;9.93;;;17.80;99.90;;;;;;6461273;23;20039;-81
2023/10/11 07:08:56;;;;;;;10.75;9.95;;;17.80;99.90;;;;;;6461654;23;20000;-80
2023/10/11 07:11:50;;;;;;;11.27;10.43;;;17.70;99.90;;;;;;6461259;22;20073;-81
2023/10/11 07:14:25;;;;;;;11.85;10.93;;;17.80;99.90;;;;;;6461347;23;20061;-80
2023/10/11 07:16:56;;;;;;;12.45;11.32;;;18.00;99.90;;;;;;6461363;23;20416;-82
2023/10/11 07:19:26;;;;;;;11.05;10.10;;;18.10;99.90;;;;;;6460982;23;20080;-80
2023/10/11 07:22:02;;;;;;;15.60;9.57;;;18.10;99.90;;;;;;6461491;23;20011;-80
2023/10/11 07:24:34;;;;;;;9.88;9.05;;;18.20;99.90;;;;;;6461587;23;20016;-80
2023/10/11 07:27:08;;;;;;;11.02;9.63;;;18.10;99.90;;;;;;6435799;23;20351;-80
2023/10/11 07:29:44;;;;;;;10.98;9.30;;;18.10;99.90;;;;;;6436333;23;20072;-79
2023/10/11 07:32:15;;;;;;;10.82;9.82;;;18.30;99.90;;;;;;6462965;23;20007;-80
2023/10/11 07:34:48;;;;;;;11.32;8.20;;;18.50;99.90;;;;;;6461773;23;20004;-79
2023/10/11 07:37:25;;;;;;;10.88;8.30;;;18.30;99.90;;;;;;6463333;23;20446;-80
2023/10/11 07:40:09;;;;;;;9.35;8.60;;;18.50;99.90;;;;;;6462976;23;20004;-80
2023/10/11 07:42:40;;;;;;;9.18;8.30;;;18.70;99.90;;;;;;6452697;23;20147;-80
2023/10/11 07:45:14;;;;;;;8.90;8.10;;;18.50;99.90;;;;;;6432187;23;20483;-80
2023/10/11 07:47:51;;;;;;;8.93;7.85;;;18.90;99.90;;;;;;6431597;23;20017;-80
2023/10/11 07:50:24;;;;;;;7.13;6.47;;;19.10;99.90;;;;;;6431378;23;20523;-80
2023/10/11 07:52:56;;;;;;;7.72;5.80;;;18.80;99.90;;;;;;6404991;23;20463;-79
2023/10/11 07:55:27;;;;;;;11.07;4.90;;;18.70;99.90;;;;;;6431432;23;20004;-80
2023/10/11 07:58:00;;;;;;;5.95;5.45;;;19.00;99.90;;;;;;6429894;23;20440;-79
2023/10/11 08:00:31;;;;;;;7.40;4.70;;;18.90;99.90;;;;;;6431291;23;20092;-79
2023/10/11 08:03:05;;;;;;;5.28;4.78;;;19.10;99.90;;;;;;6431389;23;20032;-79
2023/10/11 08:05:45;;;;;;;10.30;5.07;;;19.10;99.90;;;;;;6404805;23;20004;-79
2023/10/11 08:08:20;;;;;;;12.65;5.20;;;18.90;99.90;;;;;;6431399;23;20040;-79
2023/10/11 08:10:52;;;;;;;5.72;4.97;;;18.90;99.90;;;;;;6404517;23;20007;-80
2023/10/11 08:13:26;;;;;;;6.18;5.57;;;18.80;99.90;;;;;;6431027;23;20385;-79
2023/10/11 08:15:57;;;;;;;10.95;5.63;;;18.90;99.90;;;;;;6431258;23;19996;-80
2023/10/11 08:18:28;;;;;;;5.82;5.22;;;18.90;99.90;;;;;;6404467;23;20313;-79
2023/10/11 08:21:00;;;;;;;8.63;5.53;;;18.70;99.90;;;;;;6430929;23;20020;-79
2023/10/11 08:23:31;;;;;;;10.48;4.97;;;18.80;99.90;;;;;;6430899;23;20008;-78
2023/10/11 08:26:07;;;;;;;8.68;4.93;;;18.70;99.90;;;;;;6403936;23;20005;-79
2023/10/11 08:28:46;;;;;;;9.10;5.82;;;18.60;99.90;;;;;;6431053;23;20009;-79
2023/10/11 08:34:07;;;;;;;8.98;5.15;;;18.60;99.90;;;;;;6441089;23;20433;-80
2023/10/11 08:36:37;;;;;;;8.38;4.85;;;18.70;99.90;;;;;;6430676;23;20031;-80
2023/10/11 08:39:09;;;;;;;5.95;4.63;;;18.70;99.90;;;;;;6430847;23;20004;-80
2023/10/11 08:41:46;;;;;;;6.80;5.20;;;18.70;99.90;;;;;;6403792;23;20412;-79
2023/10/11 08:44:20;;;;;;;5.57;5.07;;;18.80;99.90;;;;;;6459165;23;20012;-80
2023/10/11 08:46:54;;;;;;;5.57;4.97;;;18.80;99.90;;;;;;6462273;23;20050;-79
2023/10/11 08:49:25;;;;;;;5.75;5.25;;;18.70;99.90;;;;;;6462158;23;20004;-79
2023/10/11 08:52:02;;;;;;;6.22;5.63;;;18.60;99.90;;;;;;6462172;23;20075;-79
2023/10/11 08:54:33;;;;;;;6.30;5.75;;;18.60;99.90;;;;;;6436567;23;20043;-79
2023/10/11 08:57:04;;;;;;;6.95;5.78;;;18.60;99.90;;;;;;6462046;23;20000;-79
2023/10/11 08:59:48;;;;;;;6.43;5.38;;;18.60;99.90;;;;;;6461991;23;20100;-79
2023/10/11 09:02:19;;;;;;;7.30;5.95;;;18.60;99.90;;;;;;6461996;23;20004;-80
2023/10/11 09:05:06;;;;;;;12.77;8.75;;;18.70;99.90;;;;;;6435100;23;20011;-80
2023/10/11 09:07:39;;;;;;;6.50;5.90;;;18.70;99.90;;;;;;6435098;23;20144;-78
2023/10/11 09:10:25;;;;;;;7.30;5.78;;;18.60;99.90;;;;;;6461844;23;20004;-79
2023/10/11 09:12:58;;;;;;;6.55;5.30;;;18.60;99.90;;;;;;6461395;22;20023;-80
2023/10/11 09:15:45;;;;;;;7.38;5.13;;;18.60;99.90;;;;;;6461206;23;20371;-80
2023/10/11 09:18:17;;;;;;;9.07;6.25;;;18.70;99.90;;;;;;6460191;23;20000;-80
2023/10/11 09:20:55;;;;;;;11.00;5.38;;;18.80;99.90;;;;;;6461481;23;20007;-79
2023/10/11 09:23:46;;;;;;;5.80;5.22;;;18.70;99.90;;;;;;6461649;23;20003;-79
2023/10/11 09:26:40;;;;;;;9.35;5.78;;;18.80;99.90;;;;;;6461623;23;20435;-79
2023/10/11 09:29:23;;;;;;;7.35;4.72;;;18.60;99.90;;;;;;6434961;23;20095;-80
2023/10/11 09:31:59;;;;;;;8.13;5.15;;;18.50;99.90;;;;;;6461804;23;19996;-79
2023/10/11 09:34:31;;;;;;;6.15;4.82;;;18.50;99.90;;;;;;6461802;23;20012;-80
2023/10/11 09:37:02;;;;;;;6.50;5.28;;;18.60;99.90;;;;;;6461788;23;20328;-81
2023/10/11 09:39:33;;;;;;;11.90;5.43;;;18.60;99.90;;;;;;6460206;23;20000;-79
2023/10/11 09:42:04;;;;;;;5.72;5.13;;;18.60;99.90;;;;;;6460507;22;20439;-79
2023/10/11 09:44:44;;;;;;;6.78;4.88;;;18.60;99.90;;;;;;6461660;23;19996;-79
2023/10/11 09:47:18;;;;;;;5.47;4.97;;;18.70;99.90;;;;;;6435009;23;20066;-80
2023/10/11 09:49:53;;;;;;;6.43;5.63;;;18.80;99.90;;;;;;6461603;23;20258;-79
2023/10/11 09:52:25;;;;;;;7.75;5.47;;;18.80;99.90;;;;;;6461571;23;20032;-80
2023/10/11 09:54:58;;;;;;;9.38;6.30;;;18.70;99.90;;;;;;6461640;23;20004;-78
2023/10/11 09:57:38;;;;;;;8.90;5.97;;;18.70;99.90;;;;;;6460074;23;20004;-80
2023/10/11 10:00:40;;;;;;;5.93;5.32;;;18.70;99.90;;;;;;6460187;23;20928;-81
2023/10/11 10:03:13;;;;;;;6.45;5.85;;;18.80;99.90;;;;;;6459917;23;20015;-80
2023/10/11 10:06:06;;;;;;;9.30;6.70;;;18.70;99.90;;;;;;6461541;23;20029;-85
2023/10/11 10:08:40;;;;;;;7.70;6.00;;;18.70;99.90;;;;;;6461348;23;20008;-81
2023/10/11 10:11:12;;;;;;;6.78;6.15;;;18.60;99.90;;;;;;6461207;22;20004;-83
2023/10/11 10:14:24;;;;;;;6.93;6.25;;;18.80;99.90;;;;;;6461052;23;20004;-82
2023/10/11 10:17:18;;;;;;;6.57;5.97;;;18.80;99.90;;;;;;6461125;23;20008;-81
2023/10/11 10:19:49;;;;;;;6.30;5.78;;;18.80;99.90;;;;;;6434352;23;20053;-81
2023/10/11 10:22:27;;;;;;;8.07;6.60;;;18.70;99.90;;;;;;6461257;23;20377;-81
2023/10/11 10:25:20;;;;;;;8.95;6.25;;;18.70;99.90;;;;;;6461400;23;19996;-80
2023/10/11 10:27:52;;;;;;;10.20;6.55;;;18.80;99.90;;;;;;6461231;23;20047;-84
2023/10/11 10:30:27;;;;;;;10.63;6.50;;;18.70;99.90;;;;;;6461283;23;20004;-83
2023/10/11 10:33:23;;;;;;;7.50;6.78;;;18.60;99.90;;;;;;6461249;23;20081;-84
2023/10/11 10:35:54;;;;;;;6.68;6.00;;;18.60;99.90;;;;;;6461568;23;20036;-78
2023/10/11 10:39:00;;;;;;;7.45;6.43;;;18.80;99.90;;;;;;6461297;23;20004;-79
2023/10/11 10:41:33;;;;;;;7.20;6.53;;;18.60;99.90;;;;;;6460803;23;20073;-80
2023/10/11 10:44:09;;;;;;;9.07;6.57;;;18.60;99.90;;;;;;6460964;23;20012;-79
2023/10/11 10:46:53;;;;;;;7.28;6.18;;;18.60;99.90;;;;;;6461295;23;20051;-84
2023/10/11 10:49:42;;;;;;;6.60;6.00;;;18.50;99.90;;;;;;6461344;23;20003;-83
2023/10/11 10:52:22;;;;;;;8.13;6.57;;;18.60;99.90;;;;;;6461203;23;20008;-83
2023/10/11 10:55:04;;;;;;;9.10;6.30;;;18.60;99.90;;;;;;6459726;23;20127;-84
2023/10/11 10:57:36;;;;;;;7.43;6.60;;;18.60;99.90;;;;;;6435991;23;20000;-83
2023/10/11 11:00:21;;;;;;;9.02;6.65;;;18.50;99.90;;;;;;6436191;23;20008;-82
2023/10/11 11:02:56;;;;;;;7.75;5.82;;;18.60;99.90;;;;;;6461335;23;20012;-80
2023/10/11 11:05:29;;;;;;;8.13;7.32;;;18.80;99.90;;;;;;6462772;23;20367;-83
2023/10/11 11:08:18;;;;;;;7.03;6.43;;;18.90;99.90;;;;;;6462722;23;20019;-81
2023/10/11 11:10:56;;;;;;;8.68;7.72;;;18.80;99.90;;;;;;6461544;22;20005;-81
2023/10/11 11:13:30;;;;;;;9.10;7.50;;;18.90;99.90;;;;;;6435756;23;20348;-82
2023/10/11 11:16:09;;;;;;;7.78;7.10;;;18.80;99.90;;;;;;6461487;23;20454;-80
2023/10/11 11:18:43;;;;;;;8.57;5.80;;;18.80;99.90;;;;;;6461377;23;20004;-83
2023/10/11 11:21:19;;;;;;;9.98;6.20;;;18.90;99.90;;;;;;6463209;23;20048;-83
2023/10/11 11:23:51;;;;;;;9.10;6.07;;;19.00;99.90;;;;;;6461436;23;20336;-82
2023/10/11 11:26:30;;;;;;;7.53;5.93;;;19.10;99.90;;;;;;6462931;23;20470;-82
2023/10/11 11:29:16;;;;;;;7.07;6.15;;;18.90;99.90;;;;;;6463136;23;20000;-82
2023/10/11 11:31:53;;;;;;;6.85;6.28;;;18.90;99.90;;;;;;6461543;23;20004;-82
2023/10/11 11:34:27;;;;;;;6.85;5.72;;;18.80;99.90;;;;;;6436141;23;20340;-82
2023/10/11 11:37:00;;;;;;;6.75;6.05;;;18.80;99.90;;;;;;6462872;23;20007;-83
2023/10/11 11:39:39;;;;;;;7.03;6.32;;;18.80;99.90;;;;;;6462853;23;20000;-78
2023/10/11 11:42:19;;;;;;;7.45;6.38;;;18.90;99.90;;;;;;6462455;22;20017;-77
2023/10/11 11:44:50;;;;;;;6.87;6.10;;;19.00;99.90;;;;;;6462988;23;20007;-78
2023/10/11 11:47:21;;;;;;;8.38;6.35;;;19.00;99.90;;;;;;6462667;23;20323;-79
2023/10/11 11:49:53;;;;;;;8.10;7.38;;;19.00;99.90;;;;;;6461100;23;20000;-78
2023/10/11 11:52:24;;;;;;;9.45;8.43;;;18.90;99.90;;;;;;6462940;23;20324;-79
2023/10/11 11:54:55;;;;;;;6.55;5.93;;;18.80;99.90;;;;;;6460973;23;20000;-81
2023/10/11 11:57:29;;;;;;;6.57;5.97;;;18.90;99.90;;;;;;6462646;23;20004;-77
2023/10/11 12:00:19;;;;;;;6.97;6.28;;;19.50;99.90;;;;;;6462063;23;20028;-79
2023/10/11 12:03:04;;;;;;;10.70;5.75;;;19.50;99.90;;;;;;6435553;23;20008;-78
2023/10/11 12:05:42;;;;;;;8.57;6.18;;;19.30;99.90;;;;;;6461129;23;20005;-78
2023/10/11 12:08:18;;;;;;;6.82;6.28;;;19.20;99.90;;;;;;6461893;23;20336;-76
2023/10/11 12:10:49;;;;;;;8.38;7.00;;;19.30;99.90;;;;;;6462398;22;20003;-79
2023/10/11 12:13:23;;;;;;;9.30;8.10;;;19.60;99.90;;;;;;6462064;23;20044;-79
2023/10/11 12:15:56;;;;;;;8.43;7.70;;;20.00;99.90;;;;;;6460784;23;20061;-80
2023/10/11 12:18:33;;;;;;;11.77;8.80;;;20.20;99.90;;;;;;6462335;23;20004;-79
2023/10/11 12:21:15;;;;;;;11.07;10.20;;;19.90;99.90;;;;;;6462248;23;20000;-81
2023/10/11 12:23:46;;;;;;;10.70;9.82;;;20.40;99.90;;;;;;6462041;23;20001;-79
2023/10/11 12:26:18;;;;;;;11.68;10.57;;;20.00;99.90;;;;;;6461633;23;20004;-80
2023/10/11 12:28:49;;;;;;;11.65;10.75;;;19.70;99.90;;;;;;6435174;23;20031;-80
2023/10/11 12:31:20;;;;;;;10.35;9.23;;;19.60;99.90;;;;;;6462155;23;20428;-79
2023/10/11 12:33:51;;;;;;;10.75;9.85;;;20.10;99.90;;;;;;6460405;23;20011;-82
2023/10/11 12:36:25;;;;;;;9.60;8.85;;;20.10;99.90;;;;;;6462083;23;20012;-78
2023/10/11 12:38:57;;;;;;;10.57;9.57;;;19.90;99.90;;;;;;6461848;23;20425;-78
2023/10/11 12:41:29;;;;;;;13.23;12.13;;;20.00;99.90;;;;;;6460202;23;20014;-78
2023/10/11 12:44:00;;;;;;;15.55;13.05;;;20.50;99.90;;;;;;6461695;23;20103;-78
2023/10/11 12:46:31;;;;;;;15.50;14.30;;;20.90;99.90;;;;;;6461937;23;20004;-78
2023/10/11 12:49:12;;;;;;;16.27;15.05;;;21.10;99.90;;;;;;6462011;23;20058;-76
2023/10/11 12:51:45;;;;;;;18.67;17.40;;;20.60;99.90;;;;;;6462268;23;20023;-81
2023/10/11 12:54:19;;;;;;;19.42;18.20;;;20.20;99.90;;;;;;6462321;23;20007;-79
2023/10/11 12:56:50;;;;;;;18.25;16.90;;;20.10;99.90;;;;;;6462140;23;20007;-78
2023/10/11 12:59:22;;;;;;;22.70;21.08;;;19.70;99.90;;;;;;6461890;23;20008;-79
2023/10/11 13:01:55;;;;;;;23.05;21.40;;;19.70;99.90;;;;;;6462224;23;20004;-79
2023/10/11 13:04:32;;;;;;;22.17;20.50;;;19.60;99.90;;;;;;6461991;23;20016;-79
2023/10/11 13:07:13;;;;;;;23.27;21.65;;;19.70;99.90;;;;;;6461516;23;20012;-79
2023/10/11 13:09:44;;;;;;;24.95;23.25;;;19.70;99.90;;;;;;6462067;23;20104;-80
2023/10/11 13:12:17;;;;;;;22.13;20.67;;;19.60;99.90;;;;;;6461906;23;20012;-82
2023/10/11 13:14:51;;;;;;;20.63;19.08;;;20.10;99.90;;;;;;6461911;23;20049;-79
2023/10/11 13:17:26;;;;;;;21.63;20.10;;;20.40;99.90;;;;;;6461955;23;20004;-79
2023/10/11 13:19:57;;;;;;;17.50;15.85;;;20.50;99.90;;;;;;6462166;23;20071;-79
2023/10/11 13:22:31;;;;;;;16.67;15.38;;;20.40;99.90;;;;;;6461612;23;20131;-80
2023/10/11 13:25:02;;;;;;;15.48;14.23;;;20.50;99.90;;;;;;6461864;23;20007;-79
2023/10/11 13:27:33;;;;;;;18.38;16.88;;;20.10;99.90;;;;;;6461587;23;20008;-79
2023/10/11 13:30:10;;;;;;;18.55;17.05;;;20.50;99.90;;;;;;6434976;23;20583;-80
2023/10/11 13:32:41;;;;;;;13.00;12.13;;;20.60;99.90;;;;;;6461479;23;20011;-79
2023/10/11 13:35:12;;;;;;;13.48;11.88;;;20.60;99.90;;;;;;6460894;23;20050;-80
2023/10/11 13:37:46;;;;;;;14.38;12.98;;;20.40;99.90;;;;;;6461466;23;20447;-81
2023/10/11 13:40:17;;;;;;;13.25;11.98;;;20.30;99.90;;;;;;6434816;23;20432;-80
2023/10/11 13:42:51;;;;;;;12.32;11.38;;;20.40;99.90;;;;;;6434123;23;20024;-81
2023/10/11 13:45:21;;;;;;;13.05;12.00;;;20.60;99.90;;;;;;6434872;23;20007;-80
2023/10/11 13:47:52;;;;;;;15.40;13.77;;;20.00;99.90;;;;;;6461464;23;20012;-79
2023/10/11 13:50:35;;;;;;;12.18;11.07;;;20.00;99.90;;;;;;6461182;23;19996;-79
2023/10/11 13:53:06;;;;;;;15.63;14.30;;;20.00;99.90;;;;;;6461294;23;20008;-79
2023/10/11 13:55:41;;;;;;;13.02;11.88;;;19.80;99.90;;;;;;6461523;23;20316;-79
2023/10/11 13:58:12;;;;;;;10.90;9.80;;;19.70;99.90;;;;;;6461267;23;20004;-79